sensor_id;sensor_type;location;lat;lon;timestamp;P1;durP1;ratioP1;P2;durP2;ratioP2
77350;SDS011;66420;50.246;14.320;2024-01-27T00:00:12;6.35;;;1.40;;
77350;SDS011;66420;50.246;14.320;2024-01-27T00:02:58;5.13;;;0.90;;
77350;SDS011;66420;50.246;14.320;2024-01-27T00:05:43;3.50;;;0.70;;
77350;SDS011;66420;50.246;14.320;2024-01-27T00:08:27;6.90;;;1.27;;
77350;SDS011;66420;50.246;14.320;2024-01-27T00:11:12;4.53;;;0.77;;
77350;SDS011;66420;50.246;14.320;2024-01-27T00:13:57;4.38;;;1.02;;
77350;SDS011;66420;50.246;14.320;2024-01-27T00:16:43;5.05;;;0.90;;
77350;SDS011;66420;50.246;14.320;2024-01-27T00:19:27;4.32;;;1.20;;
77350;SDS011;66420;50.246;14.320;2024-01-27T00:22:12;7.60;;;1.23;;
77350;SDS011;66420;50.246;14.320;2024-01-27T00:24:57;6.90;;;0.85;;
77350;SDS011;66420;50.246;14.320;2024-01-27T00:27:42;9.15;;;1.00;;
77350;SDS011;66420;50.246;14.320;2024-01-27T00:30:26;7.70;;;1.42;;
77350;SDS011;66420;50.246;14.320;2024-01-27T00:33:11;3.40;;;0.93;;
77350;SDS011;66420;50.246;14.320;2024-01-27T00:35:56;5.55;;;0.75;;
77350;SDS011;66420;50.246;14.320;2024-01-27T00:38:42;3.67;;;0.85;;
77350;SDS011;66420;50.246;14.320;2024-01-27T00:41:26;5.55;;;0.93;;
77350;SDS011;66420;50.246;14.320;2024-01-27T00:44:11;4.65;;;0.88;;
77350;SDS011;66420;50.246;14.320;2024-01-27T00:46:56;6.00;;;1.02;;
77350;SDS011;66420;50.246;14.320;2024-01-27T00:49:40;2.92;;;0.77;;
77350;SDS011;66420;50.246;14.320;2024-01-27T00:52:25;5.97;;;1.02;;
77350;SDS011;66420;50.246;14.320;2024-01-27T00:55:10;6.38;;;0.80;;
77350;SDS011;66420;50.246;14.320;2024-01-27T00:57:55;2.63;;;0.80;;
77350;SDS011;66420;50.246;14.320;2024-01-27T01:00:40;7.75;;;1.23;;
77350;SDS011;66420;50.246;14.320;2024-01-27T01:03:25;3.13;;;1.00;;
77350;SDS011;66420;50.246;14.320;2024-01-27T01:06:10;4.63;;;1.30;;
77350;SDS011;66420;50.246;14.320;2024-01-27T01:08:55;1.90;;;0.80;;
77350;SDS011;66420;50.246;14.320;2024-01-27T01:11:40;4.15;;;1.17;;
77350;SDS011;66420;50.246;14.320;2024-01-27T01:14:24;3.38;;;0.80;;
77350;SDS011;66420;50.246;14.320;2024-01-27T01:17:09;3.03;;;0.80;;
77350;SDS011;66420;50.246;14.320;2024-01-27T01:19:54;5.22;;;0.65;;
77350;SDS011;66420;50.246;14.320;2024-01-27T01:22:39;4.40;;;1.25;;
77350;SDS011;66420;50.246;14.320;2024-01-27T01:25:23;2.25;;;0.70;;
77350;SDS011;66420;50.246;14.320;2024-01-27T01:28:09;2.17;;;0.82;;
77350;SDS011;66420;50.246;14.320;2024-01-27T01:30:54;2.10;;;0.50;;
77350;SDS011;66420;50.246;14.320;2024-01-27T01:33:39;4.30;;;0.82;;
77350;SDS011;66420;50.246;14.320;2024-01-27T01:36:23;2.25;;;0.70;;
77350;SDS011;66420;50.246;14.320;2024-01-27T01:39:09;2.63;;;0.77;;
77350;SDS011;66420;50.246;14.320;2024-01-27T01:41:55;4.60;;;0.60;;
77350;SDS011;66420;50.246;14.320;2024-01-27T01:44:40;2.38;;;0.85;;
77350;SDS011;66420;50.246;14.320;2024-01-27T01:47:24;4.80;;;1.17;;
77350;SDS011;66420;50.246;14.320;2024-01-27T01:50:09;3.05;;;0.98;;
77350;SDS011;66420;50.246;14.320;2024-01-27T01:52:54;3.40;;;0.70;;
77350;SDS011;66420;50.246;14.320;2024-01-27T01:55:40;2.03;;;0.60;;
77350;SDS011;66420;50.246;14.320;2024-01-27T01:58:24;2.58;;;0.82;;
77350;SDS011;66420;50.246;14.320;2024-01-27T02:01:09;3.00;;;1.00;;
77350;SDS011;66420;50.246;14.320;2024-01-27T02:03:54;3.55;;;0.90;;
77350;SDS011;66420;50.246;14.320;2024-01-27T02:06:40;4.15;;;0.65;;
77350;SDS011;66420;50.246;14.320;2024-01-27T02:09:24;4.03;;;0.70;;
77350;SDS011;66420;50.246;14.320;2024-01-27T02:12:09;4.18;;;0.70;;
77350;SDS011;66420;50.246;14.320;2024-01-27T02:14:54;1.35;;;0.80;;
77350;SDS011;66420;50.246;14.320;2024-01-27T02:17:42;1.45;;;0.70;;
77350;SDS011;66420;50.246;14.320;2024-01-27T02:20:26;5.00;;;0.82;;
77350;SDS011;66420;50.246;14.320;2024-01-27T02:23:11;2.72;;;0.77;;
77350;SDS011;66420;50.246;14.320;2024-01-27T02:25:56;6.55;;;1.00;;
77350;SDS011;66420;50.246;14.320;2024-01-27T02:28:41;7.57;;;1.05;;
77350;SDS011;66420;50.246;14.320;2024-01-27T02:31:25;1.92;;;0.82;;
77350;SDS011;66420;50.246;14.320;2024-01-27T02:34:10;9.00;;;1.25;;
77350;SDS011;66420;50.246;14.320;2024-01-27T02:36:54;2.05;;;0.98;;
77350;SDS011;66420;50.246;14.320;2024-01-27T02:39:39;4.75;;;1.15;;
77350;SDS011;66420;50.246;14.320;2024-01-27T02:42:24;2.58;;;0.90;;
77350;SDS011;66420;50.246;14.320;2024-01-27T02:45:09;2.88;;;0.82;;
77350;SDS011;66420;50.246;14.320;2024-01-27T02:47:55;4.43;;;1.10;;
77350;SDS011;66420;50.246;14.320;2024-01-27T02:50:40;4.50;;;0.80;;
77350;SDS011;66420;50.246;14.320;2024-01-27T02:53:24;3.42;;;0.80;;
77350;SDS011;66420;50.246;14.320;2024-01-27T02:56:09;3.75;;;0.88;;
77350;SDS011;66420;50.246;14.320;2024-01-27T02:58:53;5.18;;;0.80;;
77350;SDS011;66420;50.246;14.320;2024-01-27T03:01:39;4.68;;;1.02;;
77350;SDS011;66420;50.246;14.320;2024-01-27T03:04:24;4.78;;;0.88;;
77350;SDS011;66420;50.246;14.320;2024-01-27T03:07:09;4.13;;;0.88;;
77350;SDS011;66420;50.246;14.320;2024-01-27T03:09:54;6.18;;;0.80;;
77350;SDS011;66420;50.246;14.320;2024-01-27T03:12:39;3.95;;;0.80;;
77350;SDS011;66420;50.246;14.320;2024-01-27T03:15:23;3.45;;;0.95;;
77350;SDS011;66420;50.246;14.320;2024-01-27T03:18:08;5.05;;;0.73;;
77350;SDS011;66420;50.246;14.320;2024-01-27T03:20:53;5.18;;;1.00;;
77350;SDS011;66420;50.246;14.320;2024-01-27T03:23:39;4.60;;;1.02;;
77350;SDS011;66420;50.246;14.320;2024-01-27T03:26:24;4.53;;;1.10;;
77350;SDS011;66420;50.246;14.320;2024-01-27T03:29:09;7.15;;;0.93;;
77350;SDS011;66420;50.246;14.320;2024-01-27T03:31:53;6.82;;;1.10;;
77350;SDS011;66420;50.246;14.320;2024-01-27T03:34:43;4.45;;;0.80;;
77350;SDS011;66420;50.246;14.320;2024-01-27T03:37:31;6.13;;;1.15;;
77350;SDS011;66420;50.246;14.320;2024-01-27T03:40:17;4.90;;;0.85;;
77350;SDS011;66420;50.246;14.320;2024-01-27T03:43:02;7.82;;;1.10;;
77350;SDS011;66420;50.246;14.320;2024-01-27T03:45:47;6.53;;;1.17;;
77350;SDS011;66420;50.246;14.320;2024-01-27T03:48:31;10.38;;;1.05;;
77350;SDS011;66420;50.246;14.320;2024-01-27T03:51:17;5.97;;;1.35;;
77350;SDS011;66420;50.246;14.320;2024-01-27T03:54:01;7.13;;;1.00;;
77350;SDS011;66420;50.246;14.320;2024-01-27T03:56:46;7.75;;;1.17;;
77350;SDS011;66420;50.246;14.320;2024-01-27T03:59:31;7.03;;;1.15;;
77350;SDS011;66420;50.246;14.320;2024-01-27T04:02:16;6.13;;;1.20;;
77350;SDS011;66420;50.246;14.320;2024-01-27T04:05:00;6.70;;;1.10;;
77350;SDS011;66420;50.246;14.320;2024-01-27T04:07:46;9.63;;;1.13;;
77350;SDS011;66420;50.246;14.320;2024-01-27T04:10:31;5.57;;;1.13;;
77350;SDS011;66420;50.246;14.320;2024-01-27T04:13:16;7.75;;;0.90;;
77350;SDS011;66420;50.246;14.320;2024-01-27T04:16:01;10.10;;;1.55;;
77350;SDS011;66420;50.246;14.320;2024-01-27T04:18:46;6.57;;;1.08;;
77350;SDS011;66420;50.246;14.320;2024-01-27T04:21:31;6.22;;;1.25;;
77350;SDS011;66420;50.246;14.320;2024-01-27T04:24:16;6.57;;;1.10;;
77350;SDS011;66420;50.246;14.320;2024-01-27T04:27:00;8.73;;;1.20;;
77350;SDS011;66420;50.246;14.320;2024-01-27T04:29:46;8.80;;;1.00;;
77350;SDS011;66420;50.246;14.320;2024-01-27T04:32:31;7.05;;;1.90;;
77350;SDS011;66420;50.246;14.320;2024-01-27T04:35:16;5.75;;;1.30;;
77350;SDS011;66420;50.246;14.320;2024-01-27T04:38:01;5.53;;;0.90;;
77350;SDS011;66420;50.246;14.320;2024-01-27T04:40:47;5.75;;;0.82;;
77350;SDS011;66420;50.246;14.320;2024-01-27T04:43:33;4.88;;;1.00;;
77350;SDS011;66420;50.246;14.320;2024-01-27T04:46:17;6.70;;;1.33;;
77350;SDS011;66420;50.246;14.320;2024-01-27T04:49:02;8.65;;;0.85;;
77350;SDS011;66420;50.246;14.320;2024-01-27T04:51:47;3.42;;;0.80;;
77350;SDS011;66420;50.246;14.320;2024-01-27T04:54:32;5.30;;;1.20;;
77350;SDS011;66420;50.246;14.320;2024-01-27T04:57:17;7.43;;;1.23;;
77350;SDS011;66420;50.246;14.320;2024-01-27T05:00:03;4.20;;;1.10;;
77350;SDS011;66420;50.246;14.320;2024-01-27T05:02:51;6.38;;;0.80;;
77350;SDS011;66420;50.246;14.320;2024-01-27T05:05:36;5.05;;;0.98;;
77350;SDS011;66420;50.246;14.320;2024-01-27T05:08:21;5.30;;;0.80;;
77350;SDS011;66420;50.246;14.320;2024-01-27T05:11:06;7.35;;;1.20;;
77350;SDS011;66420;50.246;14.320;2024-01-27T05:13:51;4.95;;;0.90;;
77350;SDS011;66420;50.246;14.320;2024-01-27T05:16:36;6.07;;;1.60;;
77350;SDS011;66420;50.246;14.320;2024-01-27T05:19:21;4.78;;;0.90;;
77350;SDS011;66420;50.246;14.320;2024-01-27T05:22:05;6.43;;;0.95;;
77350;SDS011;66420;50.246;14.320;2024-01-27T05:24:51;6.80;;;1.15;;
77350;SDS011;66420;50.246;14.320;2024-01-27T05:27:36;4.38;;;0.88;;
77350;SDS011;66420;50.246;14.320;2024-01-27T05:30:22;4.70;;;0.80;;
77350;SDS011;66420;50.246;14.320;2024-01-27T05:33:07;5.82;;;1.00;;
77350;SDS011;66420;50.246;14.320;2024-01-27T05:35:52;5.55;;;1.15;;
77350;SDS011;66420;50.246;14.320;2024-01-27T05:38:37;6.13;;;1.30;;
77350;SDS011;66420;50.246;14.320;2024-01-27T05:41:25;9.82;;;1.45;;
77350;SDS011;66420;50.246;14.320;2024-01-27T05:44:10;13.18;;;1.45;;
77350;SDS011;66420;50.246;14.320;2024-01-27T05:46:55;10.30;;;1.40;;
77350;SDS011;66420;50.246;14.320;2024-01-27T05:49:40;8.45;;;1.35;;
77350;SDS011;66420;50.246;14.320;2024-01-27T05:52:25;5.32;;;1.20;;
77350;SDS011;66420;50.246;14.320;2024-01-27T05:55:10;3.97;;;0.77;;
77350;SDS011;66420;50.246;14.320;2024-01-27T05:57:57;7.22;;;1.13;;
77350;SDS011;66420;50.246;14.320;2024-01-27T06:00:45;4.57;;;0.90;;
77350;SDS011;66420;50.246;14.320;2024-01-27T06:03:29;6.35;;;1.50;;
77350;SDS011;66420;50.246;14.320;2024-01-27T06:06:15;6.22;;;1.17;;
77350;SDS011;66420;50.246;14.320;2024-01-27T06:09:00;6.75;;;1.00;;
77350;SDS011;66420;50.246;14.320;2024-01-27T06:11:46;3.35;;;0.90;;
77350;SDS011;66420;50.246;14.320;2024-01-27T06:14:31;4.13;;;1.10;;
77350;SDS011;66420;50.246;14.320;2024-01-27T06:17:16;9.55;;;1.45;;
77350;SDS011;66420;50.246;14.320;2024-01-27T06:20:01;12.27;;;1.45;;
77350;SDS011;66420;50.246;14.320;2024-01-27T06:22:45;5.13;;;1.10;;
77350;SDS011;66420;50.246;14.320;2024-01-27T06:25:30;2.58;;;0.88;;
77350;SDS011;66420;50.246;14.320;2024-01-27T06:28:14;13.32;;;2.20;;
77350;SDS011;66420;50.246;14.320;2024-01-27T06:31:00;4.63;;;0.90;;
77350;SDS011;66420;50.246;14.320;2024-01-27T06:33:45;2.60;;;0.80;;
77350;SDS011;66420;50.246;14.320;2024-01-27T06:36:30;6.45;;;1.15;;
77350;SDS011;66420;50.246;14.320;2024-01-27T06:39:15;7.38;;;0.98;;
77350;SDS011;66420;50.246;14.320;2024-01-27T06:42:00;11.05;;;1.02;;
77350;SDS011;66420;50.246;14.320;2024-01-27T06:44:45;5.68;;;1.40;;
77350;SDS011;66420;50.246;14.320;2024-01-27T06:47:30;4.78;;;0.85;;
77350;SDS011;66420;50.246;14.320;2024-01-27T06:50:15;9.80;;;1.27;;
77350;SDS011;66420;50.246;14.320;2024-01-27T06:53:00;6.32;;;1.02;;
77350;SDS011;66420;50.246;14.320;2024-01-27T06:55:46;5.80;;;1.60;;
77350;SDS011;66420;50.246;14.320;2024-01-27T06:58:31;7.50;;;1.73;;
77350;SDS011;66420;50.246;14.320;2024-01-27T07:01:16;9.50;;;1.40;;
77350;SDS011;66420;50.246;14.320;2024-01-27T07:04:01;8.10;;;1.33;;
77350;SDS011;66420;50.246;14.320;2024-01-27T07:06:46;5.30;;;1.70;;
77350;SDS011;66420;50.246;14.320;2024-01-27T07:09:31;8.77;;;1.40;;
77350;SDS011;66420;50.246;14.320;2024-01-27T07:12:15;7.05;;;1.27;;
77350;SDS011;66420;50.246;14.320;2024-01-27T07:15:00;11.75;;;1.60;;
77350;SDS011;66420;50.246;14.320;2024-01-27T07:17:45;11.38;;;1.52;;
77350;SDS011;66420;50.246;14.320;2024-01-27T07:20:31;8.45;;;1.73;;
77350;SDS011;66420;50.246;14.320;2024-01-27T07:23:15;5.25;;;1.10;;
77350;SDS011;66420;50.246;14.320;2024-01-27T07:26:01;13.07;;;1.65;;
77350;SDS011;66420;50.246;14.320;2024-01-27T07:28:47;9.55;;;1.65;;
77350;SDS011;66420;50.246;14.320;2024-01-27T07:31:31;5.80;;;1.50;;
77350;SDS011;66420;50.246;14.320;2024-01-27T07:34:16;11.00;;;1.65;;
77350;SDS011;66420;50.246;14.320;2024-01-27T07:37:02;11.52;;;2.15;;
77350;SDS011;66420;50.246;14.320;2024-01-27T07:39:47;8.85;;;1.83;;
77350;SDS011;66420;50.246;14.320;2024-01-27T07:42:35;7.78;;;1.40;;
77350;SDS011;66420;50.246;14.320;2024-01-27T07:45:19;5.85;;;1.42;;
77350;SDS011;66420;50.246;14.320;2024-01-27T07:48:04;7.43;;;1.48;;
77350;SDS011;66420;50.246;14.320;2024-01-27T07:50:49;7.60;;;1.23;;
77350;SDS011;66420;50.246;14.320;2024-01-27T07:53:34;4.88;;;1.70;;
77350;SDS011;66420;50.246;14.320;2024-01-27T07:56:19;10.80;;;1.40;;
77350;SDS011;66420;50.246;14.320;2024-01-27T07:59:03;8.00;;;1.48;;
77350;SDS011;66420;50.246;14.320;2024-01-27T08:01:48;10.20;;;1.48;;
77350;SDS011;66420;50.246;14.320;2024-01-27T08:04:32;13.38;;;1.65;;
77350;SDS011;66420;50.246;14.320;2024-01-27T08:07:17;8.98;;;1.98;;
77350;SDS011;66420;50.246;14.320;2024-01-27T08:10:02;4.38;;;1.15;;
77350;SDS011;66420;50.246;14.320;2024-01-27T08:12:49;7.45;;;1.58;;
77350;SDS011;66420;50.246;14.320;2024-01-27T08:15:33;8.70;;;1.30;;
77350;SDS011;66420;50.246;14.320;2024-01-27T08:18:18;10.25;;;1.90;;
77350;SDS011;66420;50.246;14.320;2024-01-27T08:21:03;8.10;;;1.73;;
77350;SDS011;66420;50.246;14.320;2024-01-27T08:23:48;9.57;;;1.42;;
77350;SDS011;66420;50.246;14.320;2024-01-27T08:26:33;9.05;;;1.30;;
77350;SDS011;66420;50.246;14.320;2024-01-27T08:29:17;7.03;;;1.70;;
77350;SDS011;66420;50.246;14.320;2024-01-27T08:32:02;8.85;;;1.17;;
77350;SDS011;66420;50.246;14.320;2024-01-27T08:34:47;8.35;;;1.25;;
77350;SDS011;66420;50.246;14.320;2024-01-27T08:37:32;12.40;;;2.50;;
77350;SDS011;66420;50.246;14.320;2024-01-27T08:40:22;7.20;;;1.45;;
77350;SDS011;66420;50.246;14.320;2024-01-27T08:43:07;9.10;;;1.67;;
77350;SDS011;66420;50.246;14.320;2024-01-27T08:45:54;9.00;;;1.88;;
77350;SDS011;66420;50.246;14.320;2024-01-27T08:48:40;9.68;;;2.13;;
77350;SDS011;66420;50.246;14.320;2024-01-27T08:51:25;12.60;;;1.70;;
77350;SDS011;66420;50.246;14.320;2024-01-27T08:54:10;8.52;;;1.38;;
77350;SDS011;66420;50.246;14.320;2024-01-27T08:56:55;9.60;;;1.40;;
77350;SDS011;66420;50.246;14.320;2024-01-27T08:59:41;6.05;;;1.45;;
77350;SDS011;66420;50.246;14.320;2024-01-27T09:02:26;9.00;;;1.80;;
77350;SDS011;66420;50.246;14.320;2024-01-27T09:05:11;6.35;;;1.30;;
77350;SDS011;66420;50.246;14.320;2024-01-27T09:07:56;10.00;;;1.67;;
77350;SDS011;66420;50.246;14.320;2024-01-27T09:10:40;6.50;;;1.40;;
77350;SDS011;66420;50.246;14.320;2024-01-27T09:13:25;10.57;;;1.70;;
77350;SDS011;66420;50.246;14.320;2024-01-27T09:16:11;5.57;;;1.42;;
77350;SDS011;66420;50.246;14.320;2024-01-27T09:18:58;7.03;;;1.05;;
77350;SDS011;66420;50.246;14.320;2024-01-27T09:21:43;6.50;;;1.10;;
77350;SDS011;66420;50.246;14.320;2024-01-27T09:24:27;11.45;;;1.77;;
77350;SDS011;66420;50.246;14.320;2024-01-27T09:27:12;8.35;;;1.58;;
77350;SDS011;66420;50.246;14.320;2024-01-27T09:29:57;5.97;;;1.50;;
77350;SDS011;66420;50.246;14.320;2024-01-27T09:32:42;9.82;;;1.50;;
77350;SDS011;66420;50.246;14.320;2024-01-27T09:35:27;7.72;;;1.95;;
77350;SDS011;66420;50.246;14.320;2024-01-27T09:38:12;9.82;;;1.35;;
77350;SDS011;66420;50.246;14.320;2024-01-27T09:40:58;8.73;;;1.40;;
77350;SDS011;66420;50.246;14.320;2024-01-27T09:43:43;9.23;;;1.60;;
77350;SDS011;66420;50.246;14.320;2024-01-27T09:46:30;10.27;;;2.05;;
77350;SDS011;66420;50.246;14.320;2024-01-27T09:49:16;9.15;;;1.63;;
77350;SDS011;66420;50.246;14.320;2024-01-27T09:52:01;10.40;;;1.73;;
77350;SDS011;66420;50.246;14.320;2024-01-27T09:54:46;8.57;;;1.60;;
77350;SDS011;66420;50.246;14.320;2024-01-27T09:57:31;7.97;;;1.60;;
77350;SDS011;66420;50.246;14.320;2024-01-27T10:00:16;5.95;;;1.35;;
77350;SDS011;66420;50.246;14.320;2024-01-27T10:03:01;16.27;;;1.80;;
77350;SDS011;66420;50.246;14.320;2024-01-27T10:05:47;6.85;;;1.50;;
77350;SDS011;66420;50.246;14.320;2024-01-27T10:08:33;8.45;;;1.48;;
77350;SDS011;66420;50.246;14.320;2024-01-27T10:11:18;7.15;;;1.42;;
77350;SDS011;66420;50.246;14.320;2024-01-27T10:14:05;11.43;;;1.95;;
77350;SDS011;66420;50.246;14.320;2024-01-27T10:16:49;7.22;;;1.52;;
77350;SDS011;66420;50.246;14.320;2024-01-27T10:19:34;8.05;;;1.65;;
77350;SDS011;66420;50.246;14.320;2024-01-27T10:22:19;11.35;;;1.48;;
77350;SDS011;66420;50.246;14.320;2024-01-27T10:25:05;6.93;;;1.35;;
77350;SDS011;66420;50.246;14.320;2024-01-27T10:27:55;6.82;;;1.88;;
77350;SDS011;66420;50.246;14.320;2024-01-27T10:30:41;10.00;;;2.40;;
77350;SDS011;66420;50.246;14.320;2024-01-27T10:33:27;8.07;;;1.50;;
77350;SDS011;66420;50.246;14.320;2024-01-27T10:36:16;11.82;;;1.33;;
77350;SDS011;66420;50.246;14.320;2024-01-27T10:39:01;7.88;;;1.70;;
77350;SDS011;66420;50.246;14.320;2024-01-27T10:41:45;8.88;;;1.63;;
77350;SDS011;66420;50.246;14.320;2024-01-27T10:44:31;5.75;;;1.50;;
77350;SDS011;66420;50.246;14.320;2024-01-27T10:47:15;12.07;;;2.13;;
77350;SDS011;66420;50.246;14.320;2024-01-27T10:50:07;7.32;;;1.70;;
77350;SDS011;66420;50.246;14.320;2024-01-27T10:52:54;10.32;;;1.50;;
77350;SDS011;66420;50.246;14.320;2024-01-27T10:55:43;7.28;;;1.40;;
77350;SDS011;66420;50.246;14.320;2024-01-27T10:58:30;10.85;;;1.70;;
77350;SDS011;66420;50.246;14.320;2024-01-27T11:01:15;5.38;;;1.50;;
77350;SDS011;66420;50.246;14.320;2024-01-27T11:04:03;9.23;;;1.98;;
77350;SDS011;66420;50.246;14.320;2024-01-27T11:06:50;6.75;;;1.58;;
77350;SDS011;66420;50.246;14.320;2024-01-27T11:09:35;13.98;;;2.35;;
77350;SDS011;66420;50.246;14.320;2024-01-27T11:12:21;8.38;;;1.60;;
77350;SDS011;66420;50.246;14.320;2024-01-27T11:15:07;13.95;;;1.35;;
77350;SDS011;66420;50.246;14.320;2024-01-27T11:17:56;7.22;;;1.27;;
77350;SDS011;66420;50.246;14.320;2024-01-27T11:20:44;8.32;;;1.65;;
77350;SDS011;66420;50.246;14.320;2024-01-27T11:23:32;9.43;;;2.00;;
77350;SDS011;66420;50.246;14.320;2024-01-27T11:26:22;11.02;;;1.70;;
77350;SDS011;66420;50.246;14.320;2024-01-27T11:29:07;7.38;;;1.42;;
77350;SDS011;66420;50.246;14.320;2024-01-27T11:31:54;6.63;;;1.70;;
77350;SDS011;66420;50.246;14.320;2024-01-27T11:34:41;6.75;;;1.20;;
77350;SDS011;66420;50.246;14.320;2024-01-27T11:37:29;8.77;;;1.58;;
77350;SDS011;66420;50.246;14.320;2024-01-27T11:40:15;7.75;;;1.27;;
77350;SDS011;66420;50.246;14.320;2024-01-27T11:43:01;11.52;;;1.88;;
77350;SDS011;66420;50.246;14.320;2024-01-27T11:45:56;7.30;;;1.60;;
77350;SDS011;66420;50.246;14.320;2024-01-27T11:48:42;9.02;;;2.13;;
77350;SDS011;66420;50.246;14.320;2024-01-27T11:51:27;10.63;;;2.13;;
77350;SDS011;66420;50.246;14.320;2024-01-27T11:54:12;10.93;;;1.95;;
77350;SDS011;66420;50.246;14.320;2024-01-27T11:56:57;8.35;;;1.88;;
77350;SDS011;66420;50.246;14.320;2024-01-27T11:59:42;10.45;;;1.55;;
77350;SDS011;66420;50.246;14.320;2024-01-27T12:02:27;11.90;;;2.38;;
77350;SDS011;66420;50.246;14.320;2024-01-27T12:05:12;9.38;;;1.40;;
77350;SDS011;66420;50.246;14.320;2024-01-27T12:07:57;15.65;;;2.65;;
77350;SDS011;66420;50.246;14.320;2024-01-27T12:10:42;12.15;;;1.70;;
77350;SDS011;66420;50.246;14.320;2024-01-27T12:13:27;5.25;;;1.75;;
77350;SDS011;66420;50.246;14.320;2024-01-27T12:16:12;7.95;;;1.63;;
77350;SDS011;66420;50.246;14.320;2024-01-27T12:18:56;10.15;;;1.80;;
77350;SDS011;66420;50.246;14.320;2024-01-27T12:21:50;8.13;;;1.77;;
77350;SDS011;66420;50.246;14.320;2024-01-27T12:24:35;10.25;;;1.92;;
77350;SDS011;66420;50.246;14.320;2024-01-27T12:27:19;8.35;;;1.40;;
77350;SDS011;66420;50.246;14.320;2024-01-27T12:30:05;8.30;;;1.50;;
77350;SDS011;66420;50.246;14.320;2024-01-27T12:32:52;6.95;;;1.25;;
77350;SDS011;66420;50.246;14.320;2024-01-27T12:35:37;8.50;;;1.75;;
77350;SDS011;66420;50.246;14.320;2024-01-27T12:38:22;7.55;;;1.40;;
77350;SDS011;66420;50.246;14.320;2024-01-27T12:41:07;10.82;;;2.30;;
77350;SDS011;66420;50.246;14.320;2024-01-27T12:43:53;10.63;;;2.28;;
77350;SDS011;66420;50.246;14.320;2024-01-27T12:46:38;10.32;;;2.72;;
77350;SDS011;66420;50.246;14.320;2024-01-27T12:49:22;6.28;;;1.55;;
77350;SDS011;66420;50.246;14.320;2024-01-27T12:52:07;5.55;;;1.45;;
77350;SDS011;66420;50.246;14.320;2024-01-27T12:54:52;6.32;;;1.98;;
77350;SDS011;66420;50.246;14.320;2024-01-27T12:57:38;7.70;;;2.55;;
77350;SDS011;66420;50.246;14.320;2024-01-27T13:00:24;6.18;;;1.73;;
77350;SDS011;66420;50.246;14.320;2024-01-27T13:03:08;8.30;;;1.73;;
77350;SDS011;66420;50.246;14.320;2024-01-27T13:05:56;9.95;;;1.80;;
77350;SDS011;66420;50.246;14.320;2024-01-27T13:08:41;10.77;;;1.70;;
77350;SDS011;66420;50.246;14.320;2024-01-27T13:11:25;9.23;;;2.10;;
77350;SDS011;66420;50.246;14.320;2024-01-27T13:14:10;6.28;;;1.52;;
77350;SDS011;66420;50.246;14.320;2024-01-27T13:16:57;9.57;;;1.23;;
77350;SDS011;66420;50.246;14.320;2024-01-27T13:19:43;4.85;;;0.95;;
77350;SDS011;66420;50.246;14.320;2024-01-27T13:22:28;10.35;;;2.00;;
77350;SDS011;66420;50.246;14.320;2024-01-27T13:25:13;6.78;;;1.20;;
77350;SDS011;66420;50.246;14.320;2024-01-27T13:27:59;8.57;;;1.70;;
77350;SDS011;66420;50.246;14.320;2024-01-27T13:30:43;5.60;;;1.50;;
77350;SDS011;66420;50.246;14.320;2024-01-27T13:33:28;6.65;;;1.50;;
77350;SDS011;66420;50.246;14.320;2024-01-27T13:36:13;6.25;;;1.30;;
77350;SDS011;66420;50.246;14.320;2024-01-27T13:38:58;8.10;;;1.75;;
77350;SDS011;66420;50.246;14.320;2024-01-27T13:41:43;9.23;;;1.55;;
77350;SDS011;66420;50.246;14.320;2024-01-27T13:44:28;7.10;;;1.40;;
77350;SDS011;66420;50.246;14.320;2024-01-27T13:47:14;9.45;;;1.48;;
77350;SDS011;66420;50.246;14.320;2024-01-27T13:49:59;4.93;;;1.38;;
77350;SDS011;66420;50.246;14.320;2024-01-27T13:52:44;10.05;;;1.50;;
77350;SDS011;66420;50.246;14.320;2024-01-27T13:55:30;7.25;;;1.42;;
77350;SDS011;66420;50.246;14.320;2024-01-27T13:58:14;7.70;;;1.27;;
77350;SDS011;66420;50.246;14.320;2024-01-27T14:00:59;6.22;;;1.70;;
77350;SDS011;66420;50.246;14.320;2024-01-27T14:03:44;8.75;;;1.75;;
77350;SDS011;66420;50.246;14.320;2024-01-27T14:06:28;6.18;;;1.45;;
77350;SDS011;66420;50.246;14.320;2024-01-27T14:09:13;8.35;;;1.60;;
77350;SDS011;66420;50.246;14.320;2024-01-27T14:11:58;8.57;;;1.65;;
77350;SDS011;66420;50.246;14.320;2024-01-27T14:14:43;7.40;;;1.45;;
77350;SDS011;66420;50.246;14.320;2024-01-27T14:17:28;5.25;;;1.42;;
77350;SDS011;66420;50.246;14.320;2024-01-27T14:20:13;11.05;;;1.95;;
77350;SDS011;66420;50.246;14.320;2024-01-27T14:22:58;9.82;;;1.48;;
77350;SDS011;66420;50.246;14.320;2024-01-27T14:25:42;13.95;;;1.70;;
77350;SDS011;66420;50.246;14.320;2024-01-27T14:28:28;7.93;;;1.60;;
77350;SDS011;66420;50.246;14.320;2024-01-27T14:31:12;5.97;;;1.30;;
77350;SDS011;66420;50.246;14.320;2024-01-27T14:33:56;7.72;;;1.23;;
77350;SDS011;66420;50.246;14.320;2024-01-27T14:36:42;8.27;;;1.50;;
77350;SDS011;66420;50.246;14.320;2024-01-27T14:39:28;9.93;;;1.60;;
77350;SDS011;66420;50.246;14.320;2024-01-27T14:42:15;6.57;;;1.52;;
77350;SDS011;66420;50.246;14.320;2024-01-27T14:45:03;7.20;;;1.60;;
77350;SDS011;66420;50.246;14.320;2024-01-27T14:47:48;10.18;;;1.80;;
77350;SDS011;66420;50.246;14.320;2024-01-27T14:50:33;6.53;;;1.30;;
77350;SDS011;66420;50.246;14.320;2024-01-27T14:53:18;6.10;;;1.38;;
77350;SDS011;66420;50.246;14.320;2024-01-27T14:56:03;5.55;;;1.65;;
77350;SDS011;66420;50.246;14.320;2024-01-27T14:58:48;6.68;;;1.52;;
77350;SDS011;66420;50.246;14.320;2024-01-27T15:01:36;8.18;;;1.83;;
77350;SDS011;66420;50.246;14.320;2024-01-27T15:04:20;9.13;;;1.73;;
77350;SDS011;66420;50.246;14.320;2024-01-27T15:07:05;5.35;;;1.48;;
77350;SDS011;66420;50.246;14.320;2024-01-27T15:09:50;9.38;;;1.58;;
77350;SDS011;66420;50.246;14.320;2024-01-27T15:12:35;5.88;;;1.42;;
77350;SDS011;66420;50.246;14.320;2024-01-27T15:15:19;8.45;;;1.50;;
77350;SDS011;66420;50.246;14.320;2024-01-27T15:18:05;10.27;;;1.75;;
77350;SDS011;66420;50.246;14.320;2024-01-27T15:20:51;7.10;;;1.70;;
77350;SDS011;66420;50.246;14.320;2024-01-27T15:23:36;5.88;;;1.50;;
77350;SDS011;66420;50.246;14.320;2024-01-27T15:26:22;11.05;;;2.95;;
77350;SDS011;66420;50.246;14.320;2024-01-27T15:29:07;9.48;;;2.47;;
77350;SDS011;66420;50.246;14.320;2024-01-27T15:31:51;6.55;;;2.13;;
77350;SDS011;66420;50.246;14.320;2024-01-27T15:34:36;9.88;;;2.25;;
77350;SDS011;66420;50.246;14.320;2024-01-27T15:37:20;9.60;;;2.15;;
77350;SDS011;66420;50.246;14.320;2024-01-27T15:40:06;7.25;;;2.08;;
77350;SDS011;66420;50.246;14.320;2024-01-27T15:42:51;9.30;;;2.10;;
77350;SDS011;66420;50.246;14.320;2024-01-27T15:45:36;8.98;;;2.15;;
77350;SDS011;66420;50.246;14.320;2024-01-27T15:48:20;8.80;;;1.90;;
77350;SDS011;66420;50.246;14.320;2024-01-27T15:51:05;5.97;;;1.85;;
77350;SDS011;66420;50.246;14.320;2024-01-27T15:53:50;10.10;;;2.58;;
77350;SDS011;66420;50.246;14.320;2024-01-27T15:56:35;8.38;;;2.38;;
77350;SDS011;66420;50.246;14.320;2024-01-27T15:59:19;9.35;;;2.45;;
77350;SDS011;66420;50.246;14.320;2024-01-27T16:02:04;12.90;;;2.20;;
77350;SDS011;66420;50.246;14.320;2024-01-27T16:04:48;9.95;;;2.33;;
77350;SDS011;66420;50.246;14.320;2024-01-27T16:07:33;6.22;;;2.00;;
77350;SDS011;66420;50.246;14.320;2024-01-27T16:10:18;7.07;;;2.30;;
77350;SDS011;66420;50.246;14.320;2024-01-27T16:13:04;10.25;;;2.30;;
77350;SDS011;66420;50.246;14.320;2024-01-27T16:15:49;13.10;;;2.92;;
77350;SDS011;66420;50.246;14.320;2024-01-27T16:18:34;11.60;;;2.85;;